Time;durP1;ratioP1;P1;durP2;ratioP2;P2;SDS_P1;SDS_P2;PMS_P1;PMS_P2;Temp;Humidity;BMP_temperature;BMP_pressure;BME280_temperature;BME280_humidity;BME280_pressure;Samples;Min_cycle;Max_cycle;Signal;HPM_P1;HPM_P2
2021/10/15 00:01:18;;;;;;;25.40;15.50;;;;;;;9.25;80.93;99941.10;228503;1191;141537;-70
2021/10/15 00:06:26;;;;;;;18.90;13.90;;;;;;;9.29;80.99;99937.13;229509;1192;140114;-70
2021/10/15 00:11:32;;;;;;;17.00;10.50;;;;;;;9.28;81.15;99929.61;230061;1191;141538;-71
2021/10/15 00:16:37;;;;;;;23.50;14.70;;;;;;;9.26;81.03;99928.73;228841;1192;140759;-70
2021/10/15 00:21:42;;;;;;;23.70;15.20;;;;;;;9.30;81.15;99923.38;229070;1192;140737;-72
2021/10/15 00:26:47;;;;;;;20.80;13.00;;;;;;;9.30;81.07;99915.67;228581;1192;142226;-70
2021/10/15 00:31:53;;;;;;;20.60;15.80;;;;;;;9.32;81.17;99912.64;228818;1192;152948;-69
2021/10/15 00:36:59;;;;;;;22.30;15.10;;;;;;;9.37;81.36;99915.93;228338;1192;141111;-69
2021/10/15 00:42:04;;;;;;;19.90;12.80;;;;;;;9.35;81.29;99910.10;228745;1192;140306;-69
2021/10/15 00:47:07;;;;;;;18.40;13.10;;;;;;;9.34;81.11;99905.12;231180;1191;248418;-69
2021/10/15 00:52:11;;;;;;;20.90;13.90;;;;;;;9.36;81.27;99902.36;229095;1192;139745;-70
2021/10/15 00:57:17;;;;;;;20.20;14.80;;;;;;;9.41;81.28;99909.09;227800;1192;139218;-70
2021/10/15 01:02:21;;;;;;;22.70;14.40;;;;;;;9.45;81.15;99909.05;230875;1192;141840;-70
2021/10/15 01:07:28;;;;;;;18.70;11.70;;;;;;;9.44;81.03;99904.23;230990;1191;141082;-70
2021/10/15 01:12:34;;;;;;;16.80;10.80;;;;;;;9.44;81.38;99900.73;231285;1191;139759;-71
2021/10/15 01:17:38;;;;;;;16.40;12.70;;;;;;;9.49;81.38;99897.53;229573;1192;140100;-70
2021/10/15 01:22:43;;;;;;;17.90;12.70;;;;;;;9.53;81.29;99894.89;229541;1191;159140;-70
2021/10/15 01:27:47;;;;;;;15.30;11.00;;;;;;;9.53;81.14;99888.17;229773;1191;139148;-72
2021/10/15 01:32:50;;;;;;;14.40;9.80;;;;;;;9.53;81.21;99894.30;230182;1192;141966;-71
2021/10/15 01:37:54;;;;;;;9.50;6.10;;;;;;;9.57;81.36;99888.17;228712;1177;140299;-70
2021/10/15 01:42:59;;;;;;;13.90;10.30;;;;;;;9.56;81.32;99890.11;228801;1192;140354;-70
2021/10/15 01:48:03;;;;;;;15.80;11.40;;;;;;;9.53;81.39;99883.42;229619;1192;140161;-73
2021/10/15 01:53:07;;;;;;;14.80;11.50;;;;;;;9.56;81.42;99873.94;228698;1192;140663;-71
2021/10/15 01:58:11;;;;;;;13.10;9.40;;;;;;;9.58;81.74;99869.16;229005;1192;140650;-71
2021/10/15 02:03:15;;;;;;;15.60;11.20;;;;;;;9.58;81.34;99870.48;228829;1192;140872;-70
2021/10/15 02:08:20;;;;;;;16.00;12.30;;;;;;;9.59;81.62;99869.55;228770;1192;144325;-70
2021/10/15 02:13:25;;;;;;;17.80;11.60;;;;;;;9.57;81.71;99866.30;228630;1192;141160;-70
2021/10/15 02:18:29;;;;;;;14.20;9.80;;;;;;;9.57;81.67;99865.93;228618;1192;142325;-70
2021/10/15 02:23:33;;;;;;;15.80;10.90;;;;;;;9.58;81.74;99867.77;228640;1193;139633;-69
2021/10/15 02:28:38;;;;;;;16.50;10.80;;;;;;;9.58;81.73;99865.23;228641;1191;139944;-69
2021/10/15 02:33:43;;;;;;;13.90;10.40;;;;;;;9.62;81.68;99863.30;228427;1192;140069;-69
2021/10/15 02:38:47;;;;;;;14.60;11.20;;;;;;;9.65;81.76;99854.78;230155;1192;141386;-69
2021/10/15 02:43:51;;;;;;;15.20;12.10;;;;;;;9.66;81.77;99858.53;229962;1191;139205;-68
2021/10/15 02:48:55;;;;;;;12.20;9.30;;;;;;;9.70;81.81;99855.91;231258;1192;140307;-68
2021/10/15 02:54:01;;;;;;;15.40;10.90;;;;;;;9.74;81.81;99849.84;229826;1191;141102;-66
2021/10/15 02:59:07;;;;;;;15.40;11.30;;;;;;;9.75;81.77;99850.30;228561;1192;140339;-69
2021/10/15 03:04:12;;;;;;;15.10;10.50;;;;;;;9.74;81.69;99845.83;229549;1191;139220;-68
2021/10/15 03:09:16;;;;;;;15.30;12.10;;;;;;;9.74;81.44;99846.18;231081;1191;140259;-69
2021/10/15 03:14:22;;;;;;;13.80;10.70;;;;;;;9.70;81.53;99844.85;229987;1191;140642;-68
2021/10/15 03:19:36;;;;;;;12.90;8.70;;;;;;;9.70;81.71;99848.04;230773;1191;139072;-67
2021/10/15 03:24:41;;;;;;;14.20;10.20;;;;;;;9.75;81.71;99845.48;230635;1191;140371;-67
2021/10/15 03:29:45;;;;;;;13.80;10.00;;;;;;;9.79;81.68;99839.54;229765;1191;140877;-68
2021/10/15 03:34:50;;;;;;;14.30;10.50;;;;;;;9.82;81.48;99835.61;230626;1191;139747;-70
2021/10/15 03:39:54;;;;;;;15.00;10.30;;;;;;;9.84;81.46;99837.67;229617;1192;141506;-69
2021/10/15 03:45:03;;;;;;;16.90;12.80;;;;;;;9.83;81.65;99834.83;228962;1192;140092;-68
2021/10/15 03:50:16;;;;;;;14.30;10.10;;;;;;;9.82;81.56;99839.55;230618;1192;139671;-68
2021/10/15 03:55:21;;;;;;;13.40;10.30;;;;;;;9.83;81.61;99836.05;234206;1192;139692;-69
2021/10/15 04:00:26;;;;;;;15.10;9.80;;;;;;;9.83;81.68;99831.67;232397;1193;138971;-68
2021/10/15 04:05:31;;;;;;;14.80;9.80;;;;;;;9.84;81.47;99830.91;233014;1192;139722;-69
2021/10/15 04:10:35;;;;;;;11.90;9.90;;;;;;;9.82;81.54;99833.20;232387;1192;139811;-67
2021/10/15 04:15:39;;;;;;;12.60;9.70;;;;;;;9.81;81.65;99834.56;232948;1191;139471;-67
2021/10/15 04:20:44;;;;;;;10.20;9.10;;;;;;;9.82;81.64;99825.13;231874;1192;138896;-68
2021/10/15 04:25:49;;;;;;;15.70;10.00;;;;;;;9.80;81.67;99819.59;231830;1193;139583;-68
2021/10/15 04:30:54;;;;;;;13.40;9.70;;;;;;;9.79;81.50;99817.39;232639;1192;140944;-68
2021/10/15 04:35:58;;;;;;;11.00;8.50;;;;;;;9.80;81.67;99807.98;234102;1192;140393;-67
2021/10/15 04:41:02;;;;;;;16.80;9.80;;;;;;;9.77;81.65;99793.70;233769;1186;139445;-70
2021/10/15 04:46:07;;;;;;;7.90;5.20;;;;;;;9.79;81.48;99803.27;233968;1193;139816;-68
2021/10/15 04:51:13;;;;;;;11.60;8.70;;;;;;;9.81;81.47;99805.07;234310;1192;138640;-67
2021/10/15 04:56:17;;;;;;;13.80;9.80;;;;;;;9.84;81.57;99801.21;234250;1192;139858;-67
2021/10/15 05:01:22;;;;;;;12.20;9.10;;;;;;;9.87;81.33;99802.36;234286;1192;140515;-69
2021/10/15 05:06:28;;;;;;;8.10;6.50;;;;;;;9.87;81.30;99797.86;234276;1192;139944;-68
2021/10/15 05:11:32;;;;;;;12.00;8.20;;;;;;;9.85;81.42;99795.31;233810;1192;138934;-68
2021/10/15 05:16:37;;;;;;;12.70;8.90;;;;;;;9.90;81.36;99798.27;234357;1192;139468;-71
2021/10/15 05:21:43;;;;;;;12.60;10.20;;;;;;;9.90;81.37;99803.51;234326;1192;139401;-71
2021/10/15 05:26:47;;;;;;;10.50;8.30;;;;;;;9.95;81.28;99805.65;231554;1193;140972;-67
2021/10/15 05:31:52;;;;;;;12.20;8.90;;;;;;;10.01;81.27;99808.02;231734;1192;139315;-66
2021/10/15 05:36:56;;;;;;;9.80;7.40;;;;;;;10.00;81.31;99794.48;233006;1192;139445;-66
2021/10/15 05:42:01;;;;;;;12.50;8.90;;;;;;;9.96;81.18;99785.84;232452;1191;138868;-66
2021/10/15 05:47:05;;;;;;;14.40;8.20;;;;;;;9.95;81.02;99781.55;232900;1192;142050;-68
2021/10/15 05:52:18;;;;;;;10.40;7.60;;;;;;;9.90;81.23;99786.92;233071;1192;138769;-65
2021/10/15 06:02:36;;;;;;;11.00;8.90;;;;;;;9.96;81.27;99787.55;234189;1192;140181;-66
2021/10/15 06:18:38;;;;;;;11.90;8.70;;;;;;;10.14;80.99;99788.16;231696;1191;138759;-67
2021/10/15 06:23:44;;;;;;;10.10;7.20;;;;;;;10.21;80.99;99784.18;235136;1176;139812;-68
2021/10/15 06:28:48;;;;;;;11.60;8.70;;;;;;;10.25;80.72;99782.32;227956;1198;140852;-68
2021/10/15 06:33:52;;;;;;;15.10;9.30;;;;;;;10.29;80.72;99782.30;226345;1190;139541;-68
2021/10/15 06:38:56;;;;;;;16.00;10.30;;;;;;;10.29;80.51;99782.01;229301;1197;140809;-69
2021/10/15 06:44:00;;;;;;;15.00;10.30;;;;;;;10.34;80.75;99782.27;229469;1198;141203;-70
2021/10/15 06:49:04;;;;;;;14.20;10.70;;;;;;;10.39;80.78;99778.86;229270;1198;139567;-69
2021/10/15 06:54:14;;;;;;;28.90;10.90;;;;;;;10.47;80.59;99778.59;229278;1198;139938;-71
2021/10/15 06:59:21;;;;;;;13.50;10.20;;;;;;;10.55;80.28;99779.85;226691;1198;140330;-70
2021/10/15 07:04:27;;;;;;;17.40;9.40;;;;;;;10.59;80.39;99777.08;227981;1198;139391;-66
2021/10/15 07:09:32;;;;;;;9.90;8.20;;;;;;;10.65;80.25;99778.31;226728;1197;140533;-68
2021/10/15 07:14:36;;;;;;;18.30;11.00;;;;;;;10.77;80.28;99774.02;226921;1197;139079;-68
2021/10/15 07:19:40;;;;;;;13.70;10.10;;;;;;;10.82;80.41;99775.64;227407;1198;139604;-68
2021/10/15 07:24:44;;;;;;;14.30;9.40;;;;;;;10.89;80.18;99777.00;228773;1198;140261;-71
2021/10/15 07:29:48;;;;;;;17.60;11.50;;;;;;;10.97;79.98;99782.41;226878;1198;140644;-68
2021/10/15 07:34:56;;;;;;;11.90;8.60;;;;;;;11.05;80.06;99781.16;226884;1198;139581;-68
2021/10/15 07:40:00;;;;;;;14.20;10.30;;;;;;;11.14;80.12;99783.36;227586;1198;140020;-68
2021/10/15 07:45:05;;;;;;;13.50;10.60;;;;;;;11.27;79.90;99781.91;230602;1198;140807;-73
2021/10/15 07:50:19;;;;;;;18.70;12.20;;;;;;;11.39;79.70;99781.39;227967;1198;140534;-69
2021/10/15 07:55:25;;;;;;;12.30;9.70;;;;;;;11.54;79.58;99781.13;226992;1198;141030;-69
2021/10/15 08:00:32;;;;;;;15.00;10.80;;;;;;;11.65;79.12;99775.98;227206;1199;139839;-71
2021/10/15 08:05:38;;;;;;;14.40;9.10;;;;;;;11.70;79.12;99775.23;226356;1200;141175;-70
2021/10/15 08:10:42;;;;;;;15.90;11.40;;;;;;;11.80;78.95;99773.44;227892;1199;139787;-74
2021/10/15 08:16:07;;;;;;;18.30;10.90;;;;;;;11.96;78.94;99767.66;227069;1198;140129;-70
2021/10/15 08:21:12;;;;;;;13.10;10.50;;;;;;;12.17;78.70;99760.73;226270;1199;140283;-68
2021/10/15 08:26:17;;;;;;;13.10;11.10;;;;;;;12.43;78.55;99759.20;227847;1197;140383;-69
2021/10/15 08:31:21;;;;;;;11.50;9.30;;;;;;;12.59;78.16;99756.30;226743;1198;141157;-69
2021/10/15 08:36:25;;;;;;;15.70;9.80;;;;;;;12.92;78.07;99755.75;227777;1199;143837;-70
2021/10/15 08:41:29;;;;;;;13.80;10.90;;;;;;;13.22;77.62;99748.02;226354;1198;142793;-69
2021/10/15 08:46:35;;;;;;;13.10;9.20;;;;;;;13.34;77.26;99747.70;228607;1198;140105;-68
2021/10/15 08:51:40;;;;;;;12.10;9.00;;;;;;;13.38;76.53;99747.15;229322;1197;140963;-68
2021/10/15 08:56:45;;;;;;;14.00;11.30;;;;;;;13.34;76.19;99739.39;228528;1198;142763;-67
2021/10/15 09:01:50;;;;;;;13.70;9.80;;;;;;;13.49;76.17;99729.73;229354;1198;140505;-67
2021/10/15 09:07:11;;;;;;;12.80;8.50;;;;;;;13.82;75.96;99727.13;228479;1198;142230;-67
2021/10/15 09:12:18;;;;;;;14.00;10.30;;;;;;;14.11;75.65;99724.98;227838;1198;140959;-68
2021/10/15 09:17:33;;;;;;;9.30;10.80;;;;;;;14.27;75.34;99719.08;227082;1197;140224;-75
2021/10/15 09:22:41;;;;;;;10.20;9.10;;;;;;;14.38;74.85;99713.79;226057;1198;140555;-72
2021/10/15 09:27:46;;;;;;;10.20;7.90;;;;;;;14.54;74.62;99717.65;227068;1198;143425;-68
2021/10/15 09:32:56;;;;;;;10.10;6.20;;;;;;;14.66;74.14;99712.19;227733;1197;139965;-70
2021/10/15 09:38:06;;;;;;;9.40;8.30;;;;;;;14.76;73.93;99711.14;227137;1198;141817;-71
2021/10/15 09:43:12;;;;;;;8.90;8.00;;;;;;;14.91;73.61;99711.63;226604;1198;142214;-71
2021/10/15 09:48:28;;;;;;;8.50;7.70;;;;;;;14.98;73.20;99704.02;227187;1198;140192;-69
2021/10/15 09:53:32;;;;;;;7.50;6.70;;;;;;;15.08;72.64;99697.33;227227;1198;140917;-69
2021/10/15 09:58:37;;;;;;;8.30;7.20;;;;;;;15.23;72.46;99702.00;227503;1198;139377;-68
2021/10/15 10:03:41;;;;;;;11.10;6.10;;;;;;;15.36;72.11;99700.66;228331;1197;140091;-71
2021/10/15 10:08:47;;;;;;;8.90;7.20;;;;;;;15.36;71.20;99699.05;227272;1198;140154;-71
2021/10/15 10:13:51;;;;;;;6.40;5.80;;;;;;;15.26;70.56;99691.58;226970;1197;139896;-70
2021/10/15 10:19:01;;;;;;;7.20;6.10;;;;;;;15.13;70.23;99689.45;228557;1198;141379;-71
2021/10/15 10:24:19;;;;;;;7.70;6.90;;;;;;;15.08;70.04;99683.00;226577;1198;141007;-71
2021/10/15 10:29:25;;;;;;;10.50;7.30;;;;;;;15.28;70.13;99669.66;227776;1199;139560;-71
2021/10/15 10:34:29;;;;;;;7.20;6.20;;;;;;;15.73;69.84;99661.05;226358;1198;139798;-71
2021/10/15 10:39:36;;;;;;;8.90;6.90;;;;;;;16.13;69.32;99649.30;227929;1198;139614;-71
2021/10/15 10:44:49;;;;;;;;;;;;;;;16.50;68.75;99639.88;227898;1198;139756;-71
2021/10/15 10:50:03;;;;;;;8.90;6.10;;;;;;;16.89;68.21;99636.16;230276;1198;125152;-72
2021/10/15 10:55:28;;;;;;;4.10;3.80;;;;;;;17.12;67.08;99636.05;228394;1197;140360;-71
2021/10/15 11:00:33;;;;;;;3.90;3.50;;;;;;;17.14;65.57;99636.25;227903;1198;139609;-71
2021/10/15 11:05:41;;;;;;;4.80;4.40;;;;;;;17.08;64.78;99627.58;227928;1198;139270;-71
2021/10/15 11:10:46;;;;;;;4.30;3.90;;;;;;;17.14;64.72;99623.48;228210;1198;139387;-71
2021/10/15 11:15:51;;;;;;;5.00;4.40;;;;;;;17.29;64.16;99616.22;226967;1198;139720;-70
2021/10/15 11:20:56;;;;;;;5.30;4.80;;;;;;;17.23;63.23;99619.06;228272;1198;139477;-70
2021/10/15 11:26:00;;;;;;;4.90;4.50;;;;;;;16.99;62.94;99620.48;227648;1199;140002;-69
2021/10/15 11:31:11;;;;;;;6.20;5.60;;;;;;;16.97;63.34;99611.77;227680;1198;140377;-71
2021/10/15 11:36:31;;;;;;;6.20;5.50;;;;;;;17.05;62.96;99602.60;228561;1198;139819;-68
2021/10/15 11:42:42;;;;;;;;;;;;;;;;;;;;;
2021/10/15 11:48:14;;;;;;;6.80;5.40;;;;;;;16.88;62.86;99591.13;226508;1199;138951;-68
2021/10/15 11:53:39;;;;;;;5.40;4.90;;;;;;;16.91;63.15;99585.84;227157;1190;139153;-68
2021/10/15 11:59:01;;;;;;;4.40;3.50;;;;;;;16.95;62.77;99584.36;226958;1198;140034;-70
2021/10/15 12:04:11;;;;;;;4.90;4.50;;;;;;;16.75;62.39;99580.77;227562;1198;140227;-70
2021/10/15 12:09:33;;;;;;;5.60;5.00;;;;;;;16.45;62.11;99575.11;226632;1197;140468;-69
2021/10/15 12:14:39;;;;;;;5.00;4.20;;;;;;;16.12;62.15;99571.92;227070;1197;140446;-69
2021/10/15 12:20:15;;;;;;;;;;;;;;;;;;;;;
2021/10/15 12:25:28;;;;;;;5.00;4.50;;;;;;;15.77;62.69;99571.77;226714;1197;139829;-70
2021/10/15 12:30:33;;;;;;;5.00;4.60;;;;;;;15.63;62.78;99567.98;229332;1198;139957;-69
2021/10/15 12:35:42;;;;;;;;;;;;;;;15.61;63.10;99568.84;228347;1198;139427;-68
2021/10/15 12:40:54;;;;;;;5.40;4.90;;;;;;;15.44;62.85;99565.19;227829;1198;126043;-69
2021/10/15 12:46:00;;;;;;;8.50;5.50;;;;;;;15.33;62.88;99562.71;229318;1197;140016;-69
2021/10/15 12:51:09;;;;;;;9.70;4.70;;;;;;;15.53;63.13;99550.36;229591;1197;139019;-69
2021/10/15 12:56:16;;;;;;;3.20;2.40;;;;;;;15.59;62.64;99553.05;229027;1198;139899;-68
2021/10/15 13:01:26;;;;;;;4.10;3.80;;;;;;;15.54;62.62;99551.96;228412;1198;139618;-68
2021/10/15 13:07:22;;;;;;;;;;;;;;;;;;;;;
2021/10/15 13:12:29;;;;;;;5.80;5.20;;;;;;;15.86;62.97;99537.73;227853;1198;139690;-67
2021/10/15 13:17:35;;;;;;;5.60;5.00;;;;;;;15.93;62.70;99537.09;228323;1198;139606;-68
2021/10/15 13:22:45;;;;;;;4.90;4.50;;;;;;;16.15;62.51;99530.72;228013;1198;139925;-70
2021/10/15 13:27:56;;;;;;;7.20;4.70;;;;;;;16.06;62.00;99531.95;227633;1198;139772;-68
2021/10/15 13:33:02;;;;;;;5.00;4.40;;;;;;;15.78;61.87;99526.77;226718;1197;140659;-67
2021/10/15 13:38:13;;;;;;;9.50;5.30;;;;;;;15.58;61.93;99516.66;228870;1197;139320;-69
2021/10/15 13:54:32;;;;;;;5.70;4.60;;;;;;;15.13;62.65;99508.48;226995;1199;139782;-68
2021/10/15 13:59:45;;;;;;;6.00;4.40;;;;;;;14.93;62.75;99507.98;226542;1198;139746;-69
2021/10/15 14:04:54;;;;;;;6.50;4.20;;;;;;;14.74;62.90;99504.70;226574;1199;139807;-69
2021/10/15 14:10:51;;;;;;;4.40;3.90;;;;;;;14.58;63.15;99507.80;226819;1198;141069;-68
2021/10/15 14:16:06;;;;;;;4.70;4.30;;;;;;;14.48;63.53;99507.83;226640;1198;140074;-70
2021/10/15 14:21:16;;;;;;;4.70;4.30;;;;;;;14.37;63.72;99508.11;226064;1197;139610;-67
2021/10/15 14:26:26;;;;;;;5.60;4.60;;;;;;;14.34;63.97;99503.70;226696;1198;141520;-70
2021/10/15 14:31:35;;;;;;;5.00;4.50;;;;;;;14.28;64.05;99507.75;226515;1198;139030;-69
2021/10/15 14:36:39;;;;;;;5.20;3.60;;;;;;;14.21;64.17;99506.88;226870;1197;140025;-68
2021/10/15 14:41:43;;;;;;;4.10;3.70;;;;;;;14.14;64.13;99504.21;229343;1197;140054;-68
2021/10/15 14:47:08;;;;;;;5.80;3.50;;;;;;;14.03;63.94;99505.21;229076;1198;140668;-69
2021/10/15 14:52:12;;;;;;;4.70;3.30;;;;;;;13.97;63.88;99505.84;229402;1197;139014;-68
2021/10/15 14:57:50;;;;;;;3.10;2.80;;;;;;;13.96;63.97;99501.81;229052;1197;139695;-67
2021/10/15 15:03:09;;;;;;;;;;;;;;;;;;;;;
2021/10/15 15:08:16;;;;;;;4.80;4.30;;;;;;;13.88;63.60;99497.48;226601;1198;139982;-68
2021/10/15 15:13:43;;;;;;;4.00;3.70;;;;;;;13.79;63.86;99503.13;227422;1198;139363;-69
2021/10/15 15:18:48;;;;;;;5.20;3.60;;;;;;;13.72;63.63;99498.02;228472;1198;139163;-68
2021/10/15 15:24:14;;;;;;;5.40;4.30;;;;;;;13.65;63.90;99500.65;226673;1198;140056;-69
2021/10/15 15:29:21;;;;;;;7.10;4.90;;;;;;;13.56;64.00;99502.05;227352;1198;140046;-67
2021/10/15 15:34:30;;;;;;;4.10;3.80;;;;;;;13.47;64.07;99497.93;227773;1197;140063;-68
2021/10/15 15:39:38;;;;;;;3.30;2.90;;;;;;;13.42;64.20;99492.23;226588;1198;139405;-67
2021/10/15 15:44:49;;;;;;;7.90;4.60;;;;;;;13.39;64.26;99498.49;227519;1197;247032;-69
2021/10/15 15:49:58;;;;;;;5.10;3.80;;;;;;;13.37;64.14;99504.04;227073;1198;139691;-69
2021/10/15 15:55:40;;;;;;;3.40;3.10;;;;;;;13.31;64.51;99509.03;226311;1197;140093;-68
2021/10/15 16:00:45;;;;;;;4.90;4.50;;;;;;;13.26;64.80;99511.93;226716;1198;140214;-69
2021/10/15 16:05:50;;;;;;;6.30;3.30;;;;;;;13.19;64.72;99513.43;226421;1198;140106;-68
2021/10/15 16:10:55;;;;;;;3.40;3.10;;;;;;;13.11;64.72;99511.75;227044;1198;140972;-68
2021/10/15 16:16:14;;;;;;;5.10;3.60;;;;;;;13.02;64.91;99510.66;227046;1198;140264;-68
2021/10/15 16:21:23;;;;;;;4.20;3.50;;;;;;;12.93;64.76;99509.23;227099;1198;139838;-68
2021/10/15 16:26:35;;;;;;;4.80;3.70;;;;;;;12.90;65.08;99513.66;227302;1198;142966;-68
2021/10/15 16:31:59;;;;;;;3.80;3.40;;;;;;;12.86;65.23;99510.30;229072;1198;139611;-68
2021/10/15 16:37:05;;;;;;;6.20;3.30;;;;;;;12.85;65.43;99513.78;227256;1198;138846;-68
2021/10/15 16:42:22;;;;;;;8.20;3.90;;;;;;;12.82;65.67;99516.23;227004;1198;139188;-68
2021/10/15 16:47:56;;;;;;;5.00;3.70;;;;;;;12.77;65.65;99524.86;227527;1197;138810;-69
2021/10/15 16:52:59;;;;;;;5.80;4.70;;;;;;;12.85;65.96;99527.05;229307;1197;141190;-69
2021/10/15 16:58:03;;;;;;;5.50;3.50;;;;;;;12.89;65.84;99524.56;229012;1198;139138;-68
2021/10/15 17:03:22;;;;;;;4.00;3.30;;;;;;;12.88;65.82;99525.46;229322;1198;139089;-68
2021/10/15 17:08:27;;;;;;;3.10;2.80;;;;;;;12.88;66.16;99521.83;229263;1198;140503;-71
2021/10/15 17:13:32;;;;;;;4.10;3.40;;;;;;;12.87;65.99;99516.74;228333;1197;139756;-71
2021/10/15 17:18:37;;;;;;;8.40;4.90;;;;;;;12.91;65.90;99509.98;226339;1198;139860;-71
2021/10/15 17:23:41;;;;;;;6.60;5.60;;;;;;;12.89;65.98;99505.52;227624;1190;140084;-70
2021/10/15 17:28:53;;;;;;;6.00;4.30;;;;;;;12.85;66.16;99507.15;228247;1198;141310;-68
2021/10/15 17:34:03;;;;;;;5.90;4.80;;;;;;;12.82;66.22;99510.02;227107;1198;139092;-69
2021/10/15 17:39:10;;;;;;;4.50;3.50;;;;;;;12.75;66.25;99506.00;227924;1198;139832;-68
2021/10/15 17:44:28;;;;;;;6.70;5.00;;;;;;;12.72;66.53;99505.86;226363;1198;158968;-68
2021/10/15 17:49:42;;;;;;;7.90;5.80;;;;;;;12.70;66.69;99502.10;227353;1198;139913;-68
2021/10/15 17:54:47;;;;;;;12.40;5.90;;;;;;;12.65;67.03;99501.90;227838;1198;139612;-67
2021/10/15 17:59:55;;;;;;;7.10;5.30;;;;;;;12.66;67.26;99504.15;227572;1198;139707;-68
2021/10/15 18:05:18;;;;;;;8.40;5.60;;;;;;;12.63;67.47;99509.89;228084;1198;232856;-67
2021/10/15 18:10:26;;;;;;;10.40;5.70;;;;;;;12.56;67.38;99508.48;227430;1198;140510;-67
2021/10/15 18:15:41;;;;;;;9.00;6.10;;;;;;;12.53;68.04;99513.39;227904;1198;140253;-66
2021/10/15 18:20:47;;;;;;;6.00;5.40;;;;;;;12.48;68.46;99518.05;226900;1198;140043;-66
2021/10/15 18:25:53;;;;;;;8.00;5.60;;;;;;;12.42;68.89;99516.33;228217;1197;140437;-67
2021/10/15 18:30:57;;;;;;;6.20;5.60;;;;;;;12.36;69.20;99521.30;228161;1197;139040;-67
2021/10/15 18:36:02;;;;;;;7.40;6.50;;;;;;;12.36;69.57;99531.30;228829;1198;142332;-66
2021/10/15 18:41:14;;;;;;;6.20;5.60;;;;;;;12.30;69.86;99542.29;228524;1197;140723;-68
2021/10/15 18:46:23;;;;;;;5.80;4.60;;;;;;;12.16;70.32;99555.70;228162;1198;140790;-66
2021/10/15 18:51:28;;;;;;;9.30;5.70;;;;;;;12.04;71.29;99562.92;229543;1197;139555;-70
2021/10/15 18:56:38;;;;;;;5.80;5.30;;;;;;;11.94;71.39;99572.30;229727;1197;141000;-70
2021/10/15 19:01:43;;;;;;;4.80;4.40;;;;;;;11.85;71.95;99570.23;229497;1197;150846;-70
2021/10/15 19:06:49;;;;;;;4.70;4.20;;;;;;;11.77;72.42;99575.45;226865;1198;139858;-67
2021/10/15 19:11:57;;;;;;;6.20;4.10;;;;;;;11.69;72.53;99581.71;228235;1197;140684;-70
2021/10/15 19:17:02;;;;;;;5.30;3.70;;;;;;;11.60;73.01;99603.21;227444;1197;140112;-69
2021/10/15 19:22:30;;;;;;;;;;;;;;;;;;;;;
2021/10/15 19:27:41;;;;;;;1.80;1.70;;;;;;;11.36;72.50;99643.58;228459;1197;139395;-68
2021/10/15 19:32:56;;;;;;;2.40;1.50;;;;;;;11.16;72.33;99654.60;227240;1198;140415;-68
2021/10/15 19:38:26;;;;;;;1.40;1.40;;;;;;;10.94;72.19;99672.71;227727;1198;140116;-67
2021/10/15 19:43:35;;;;;;;2.50;1.30;;;;;;;10.72;71.63;99678.42;227127;1197;141516;-67
2021/10/15 19:48:43;;;;;;;1.40;1.20;;;;;;;10.58;71.75;99687.00;226527;1198;140219;-67
2021/10/15 19:53:47;;;;;;;1.80;1.50;;;;;;;10.48;71.81;99692.33;226315;1198;140163;-67
2021/10/15 19:58:55;;;;;;;0.80;0.80;;;;;;;10.30;71.68;99700.70;226653;1198;139605;-66
2021/10/15 20:04:00;;;;;;;1.50;1.30;;;;;;;10.17;71.81;99698.13;227228;1198;139706;-67
2021/10/15 20:09:05;;;;;;;7.10;4.20;;;;;;;10.12;71.97;99690.98;227594;1197;141056;-66
2021/10/15 20:14:13;;;;;;;13.10;6.00;;;;;;;10.07;72.04;99698.89;227676;1197;139844;-68
2021/10/15 20:19:20;;;;;;;7.30;4.40;;;;;;;10.00;72.31;99703.15;227240;1197;139769;-67
2021/10/15 20:24:27;;;;;;;4.10;2.40;;;;;;;9.93;72.34;99700.36;227567;1198;140131;-67
2021/10/15 20:29:31;;;;;;;;;;;;;;;9.91;72.46;99713.04;228608;1197;225024;-67
2021/10/15 20:34:36;;;;;;;4.80;2.70;;;;;;;9.81;72.67;99718.17;227998;1198;127466;-67
2021/10/15 20:39:44;;;;;;;3.20;1.40;;;;;;;9.65;72.86;99722.55;227113;1198;140461;-66
2021/10/15 20:44:49;;;;;;;4.70;2.10;;;;;;;9.59;73.25;99724.13;229260;1197;141117;-65
2021/10/15 20:49:55;;;;;;;4.50;1.80;;;;;;;9.61;73.21;99734.73;229262;1198;139897;-67
2021/10/15 20:55:00;;;;;;;2.10;1.90;;;;;;;9.55;73.50;99744.65;229442;1198;140377;-69
2021/10/15 21:00:10;;;;;;;5.40;3.00;;;;;;;9.55;73.68;99758.79;228786;1198;138760;-69
2021/10/15 21:05:17;;;;;;;3.00;1.90;;;;;;;9.54;73.80;99760.55;227831;1197;139749;-66
2021/10/15 21:10:22;;;;;;;4.40;1.50;;;;;;;9.51;73.80;99768.33;228034;1198;142271;-68
2021/10/15 21:15:27;;;;;;;4.40;2.10;;;;;;;9.48;74.17;99779.52;228963;1198;140078;-69
2021/10/15 21:20:32;;;;;;;4.30;2.90;;;;;;;9.50;74.51;99778.52;228047;1198;138768;-67
2021/10/15 21:25:36;;;;;;;7.30;2.90;;;;;;;9.57;74.54;99774.92;228149;1198;139034;-68
2021/10/15 21:30:41;;;;;;;5.90;3.70;;;;;;;9.61;74.87;99781.38;227789;1198;140081;-65
2021/10/15 21:35:47;;;;;;;5.20;3.20;;;;;;;9.60;74.85;99776.92;227035;1200;138913;-66
2021/10/15 21:40:53;;;;;;;3.10;2.20;;;;;;;9.52;74.72;99784.04;227352;1198;161738;-66
2021/10/15 21:46:00;;;;;;;4.50;2.60;;;;;;;9.50;74.92;99789.14;228115;1198;140995;-66
2021/10/15 21:51:05;;;;;;;;;;;;;;;9.46;75.19;99798.72;226623;1198;140842;-67
2021/10/15 21:56:13;;;;;;;4.60;3.20;;;;;;;9.42;75.46;99806.21;227260;1198;126151;-67
2021/10/15 22:01:17;;;;;;;11.00;3.80;;;;;;;9.39;75.36;99809.20;227620;1198;140325;-68
2021/10/15 22:06:43;;;;;;;6.80;3.20;;;;;;;9.38;75.34;99810.31;227075;1198;143249;-66
2021/10/15 22:11:48;;;;;;;6.10;3.70;;;;;;;9.31;75.48;99808.45;227314;1198;139585;-65
2021/10/15 22:16:53;;;;;;;8.30;5.30;;;;;;;9.25;75.79;99810.98;226603;1198;138845;-68
2021/10/15 22:21:58;;;;;;;6.30;3.40;;;;;;;9.22;75.74;99809.37;227734;1197;143400;-65
2021/10/15 22:27:06;;;;;;;6.50;4.30;;;;;;;9.23;75.81;99811.31;227817;1198;139593;-64
2021/10/15 22:32:12;;;;;;;7.40;4.10;;;;;;;9.24;75.85;99816.80;227123;1197;139167;-66
2021/10/15 22:37:22;;;;;;;3.80;3.20;;;;;;;9.24;76.11;99826.23;226985;1198;139635;-65
2021/10/15 22:42:33;;;;;;;11.90;4.80;;;;;;;9.30;76.21;99834.08;228679;1197;139103;-66
2021/10/15 22:47:40;;;;;;;6.50;4.00;;;;;;;9.32;76.32;99835.29;227995;1198;139637;-66
2021/10/15 22:52:45;;;;;;;6.90;3.90;;;;;;;9.33;76.21;99835.21;229257;1198;139632;-66
2021/10/15 22:57:54;;;;;;;8.90;3.20;;;;;;;9.33;76.22;99838.34;229713;1197;139811;-66
2021/10/15 23:03:00;;;;;;;5.60;3.20;;;;;;;9.36;76.00;99842.27;229180;1198;158995;-69
2021/10/15 23:08:08;;;;;;;9.10;3.20;;;;;;;9.33;76.27;99844.16;229374;1197;138669;-69
2021/10/15 23:13:15;;;;;;;9.40;3.70;;;;;;;9.31;76.12;99851.45;229352;1197;138932;-69
2021/10/15 23:18:21;;;;;;;13.90;7.00;;;;;;;9.38;76.28;99862.54;227749;1198;140886;-66
2021/10/15 23:23:26;;;;;;;6.10;4.60;;;;;;;9.41;76.17;99865.63;229017;1198;141782;-69
2021/10/15 23:28:31;;;;;;;8.00;4.70;;;;;;;9.39;76.29;99868.55;229176;1198;139585;-67
2021/10/15 23:33:41;;;;;;;7.20;4.60;;;;;;;9.40;76.20;99875.59;227520;1198;139885;-66
2021/10/15 23:38:46;;;;;;;11.50;4.90;;;;;;;9.39;76.10;99874.61;228165;1198;150934;-67
2021/10/15 23:43:53;;;;;;;8.80;5.10;;;;;;;9.36;76.37;99881.48;228036;1197;140652;-68
2021/10/15 23:48:57;;;;;;;12.00;7.10;;;;;;;9.34;76.46;99885.48;227685;1198;139162;-69
2021/10/15 23:54:12;;;;;;;;;;;;;;;;;;;;;
2021/10/15 23:59:17;;;;;;;10.20;5.90;;;;;;;9.32;76.53;99886.31;226590;1198;141714;-68
